Aérodrome :
LOGIN :

S'inscrire | Disclaimer

   EN    FR    IT 

 










Légende :    VFR   VFR Marginal   IFR   IFR Intensif   IFR Très Intensif
Visi : 
Plafond : 
>= 8 km
>= 3000ft
5 à 8 km
1000 à 3000 ft
1500m à 5 km
500 à 1000 ft
800 à 1500m
200 à 500 ft
< 800m
< 200 ft
Symboles :   Orages  Brouillard  Fortes neiges  Fortes précipitations  Vent > 20 kt
SIGMETs :   Divers  Orages  Givrage  Turbulence  Onde Orograph.  Cendres Volcan.






- Altitude de l'aérodrome : 209 ft
- Code IATA : CLY


LFKC - Calvi

DERNIER METAR :
  • 161000Z AUTO 00000KT CAVOK 16/10 Q1018 NOSIG

METARs EXPIRÉS :
  • 160930Z AUTO 00000KT CAVOK 15/10 Q1019 NOSIG
  • 160900Z AUTO 00000KT CAVOK 13/10 Q1019 NOSIG
  • 160830Z AUTO VRB02KT CAVOK 11/09 Q1019 NOSIG
  • 160800Z AUTO 18003KT 150V220 CAVOK 09/08 Q1018 NOSIG
  • 160730Z AUTO VRB03KT CAVOK 08/06 Q1018 NOSIG

TAF TAF LFKC
Valide du 16 à 09h jusqu'au 17 à 09h UTC


160800Z 1609/1709 17005KT CAVOK TX18/1612Z TN10/1609Z
TEMPO 1612/1615 35010KT
ATIS : +33 4 95 65 82 49



MET'MAP, la Météo Aéronautique d'un coup d'oeil ! - Copyright ORBIFLY Décembre 2007 - Disclaimer

ORBIFLY MET'MAP TEAM :

Programmation & Développement : Alexandra Zaïnal
Sur une idée originale de : Baudouin d'Aumeries
Assistance à la programmation : Marc-Olivier Méhu
Soutien technique & logistique : Manuel Goepfert

Contact : metmap@orbifly.com




SOURCES & CREDITS :

   NOAA